Time;durP1;ratioP1;P1;durP2;ratioP2;P2;SDS_P1;SDS_P2;PMS_P1;PMS_P2;Temp;Humidity;BMP_temperature;BMP_pressure;BME280_temperature;BME280_humidity;BME280_pressure;Samples;Min_cycle;Max_cycle;Signal;HPM_P1;HPM_P2
2024/04/23 00:00:16;;;;;;;;;;;;;;;3.89;80.02;101782.19;4554673;25;19935;-68
2024/04/23 00:02:20;;;;;;;;;;;;;;;3.88;80.09;101769.75;4552736;26;19927;-68
2024/04/23 00:04:23;;;;;;;;;;;;;;;3.85;80.01;101763.78;4543729;26;20416;-69
2024/04/23 00:06:24;;;;;;;;;;;;;;;3.84;79.99;101764.75;4552591;25;19932;-68
2024/04/23 00:08:28;;;;;;;;;;;;;;;3.82;80.10;101764.00;4553815;26;19927;-68
2024/04/23 00:10:29;;;;;;;;;;;;;;;3.81;80.42;101772.97;4551509;25;20395;-68
2024/04/23 00:12:33;;;;;;;;;;;;;;;3.79;80.31;101768.63;4548820;26;19996;-68
2024/04/23 00:14:34;;;;;;;;;;;;;;;3.78;80.61;101772.25;4553229;26;20379;-68
2024/04/23 00:16:37;;;;;;;;;;;;;;;3.77;80.17;101765.19;4555483;26;19927;-68
2024/04/23 00:18:38;;;;;;;;;;;;;;;3.75;80.23;101768.94;4554994;25;19934;-68
2024/04/23 00:20:44;;;;;;;;;;;;;;;3.73;80.54;101768.16;4556169;26;20373;-69
2024/04/23 00:22:45;;;;;;;;;;;;;;;3.70;80.24;101763.03;4555552;26;19928;-68
2024/04/23 00:24:49;;;;;;;;;;;;;;;3.69;80.47;101758.69;4555321;26;19996;-68
2024/04/23 00:26:51;;;;;;;;;;;;;;;3.68;79.97;101759.63;4553166;25;19935;-68
2024/04/23 00:28:54;;;;;;;;;;;;;;;3.64;80.45;101756.31;4550912;25;19936;-68
2024/04/23 00:30:55;;;;;;;;;;;;;;;3.64;80.42;101752.78;4551936;26;19935;-68
2024/04/23 00:32:59;;;;;;;;;;;;;;;3.61;80.48;101752.03;4555067;26;19928;-68
2024/04/23 00:35:00;;;;;;;;;;;;;;;3.49;80.02;101736.00;4556418;26;20383;-68
2024/04/23 00:37:06;;;;;;;;;;;;;;;3.56;80.30;101743.50;4556170;25;19928;-68
2024/04/23 00:39:07;;;;;;;;;;;;;;;3.53;79.76;101751.72;4551658;25;19928;-68
2024/04/23 00:41:11;;;;;;;;;;;;;;;3.52;80.16;101746.50;4556519;26;19927;-68
2024/04/23 00:43:12;;;;;;;;;;;;;;;3.51;79.97;101750.97;4551252;26;19944;-68
2024/04/23 00:45:16;;;;;;;;;;;;;;;3.50;79.87;101743.06;4555988;26;19939;-68
2024/04/23 00:47:18;;;;;;;;;;;;;;;3.46;79.62;101747.75;4552365;26;19934;-68
2024/04/23 00:49:21;;;;;;;;;;;;;;;3.43;79.67;101751.50;4554940;25;19928;-68
2024/04/23 00:51:22;;;;;;;;;;;;;;;3.41;79.94;101747.22;4548299;26;19935;-69
2024/04/23 00:53:26;;;;;;;;;;;;;;;3.37;79.99;101746.59;4556713;25;19927;-68
2024/04/23 00:55:29;;;;;;;;;;;;;;;3.34;79.58;101746.81;4555458;26;19939;-68
2024/04/23 00:57:30;;;;;;;;;;;;;;;3.30;79.72;101741.78;4553075;25;20083;-68
2024/04/23 00:59:36;;;;;;;;;;;;;;;3.24;79.84;101740.38;4555439;25;19928;-68
2024/04/23 01:01:37;;;;;;;;;;;;;;;3.19;79.52;101739.84;4555786;25;19943;-68
2024/04/23 01:03:41;;;;;;;;;;;;;;;3.15;79.92;101744.53;4557554;25;19938;-68
2024/04/23 01:05:42;;;;;;;;;;;;;;;3.12;79.86;101746.53;4543657;26;19935;-68
2024/04/23 01:07:43;;;;;;;;;;;;;;;3.10;79.74;101745.78;4555760;26;19928;-68
2024/04/23 01:09:49;;;;;;;;;;;;;;;3.06;80.05;101751.34;4554652;25;19927;-68
2024/04/23 01:11:50;;;;;;;;;;;;;;;3.04;80.35;101744.38;4556568;26;19943;-68
2024/04/23 01:13:54;;;;;;;;;;;;;;;3.01;79.93;101736.56;4555630;26;19931;-68
2024/04/23 01:15:55;;;;;;;;;;;;;;;3.00;80.37;101737.56;4553996;26;20374;-68
2024/04/23 01:18:00;;;;;;;;;;;;;;;2.97;80.09;101735.09;4555442;25;20373;-68
2024/04/23 01:20:02;;;;;;;;;;;;;;;2.95;80.05;101737.03;4555476;26;19938;-68
2024/04/23 01:22:06;;;;;;;;;;;;;;;2.93;80.19;101736.25;4555053;25;20253;-68
2024/04/23 01:24:09;;;;;;;;;;;;;;;2.91;80.01;101732.84;4552135;26;20085;-68
2024/04/23 01:26:15;;;;;;;;;;;;;;;2.89;79.92;101727.59;4555987;25;20362;-68
2024/04/23 01:28:16;;;;;;;;;;;;;;;2.85;80.31;101724.28;4556947;25;19939;-68
2024/04/23 01:30:20;;;;;;;;;;;;;;;2.81;80.38;101730.78;4555316;25;20258;-68
2024/04/23 01:32:21;;;;;;;;;;;;;;;2.80;79.95;101731.72;4548971;26;20406;-68
2024/04/23 01:34:25;;;;;;;;;;;;;;;2.79;80.49;101729.16;4554528;26;19940;-68
2024/04/23 01:36:26;;;;;;;;;;;;;;;2.76;80.75;101729.38;4556752;26;19944;-68
2024/04/23 01:38:30;;;;;;;;;;;;;;;2.73;80.99;101737.56;4555275;26;19934;-68
2024/04/23 01:40:30;;;;;;;;;;;;;;;2.71;81.00;101727.00;4554211;25;19928;-68
2024/04/23 01:42:37;;;;;;;;;;;;;;;2.68;81.06;101728.06;4554893;26;20296;-68
2024/04/23 01:44:38;;;;;;;;;;;;;;;2.66;80.77;101729.13;4555331;26;19928;-68
2024/04/23 01:46:42;;;;;;;;;;;;;;;2.62;80.81;101725.81;4555605;25;19997;-68
2024/04/23 01:48:43;;;;;;;;;;;;;;;2.59;81.12;101723.34;4546415;25;19928;-69
2024/04/23 01:50:47;;;;;;;;;;;;;;;2.57;80.84;101727.06;4554642;25;20314;-68
2024/04/23 01:52:48;;;;;;;;;;;;;;;2.56;80.86;101728.03;4552871;26;20302;-68
2024/04/23 01:54:51;;;;;;;;;;;;;;;2.52;80.83;101722.03;4584991;25;19930;-68
2024/04/23 01:56:52;;;;;;;;;;;;;;;2.52;80.84;101724.69;4553418;25;19996;-68
2024/04/23 01:58:58;;;;;;;;;;;;;;;2.49;81.27;101730.22;4554892;25;19928;-68
2024/04/23 02:00:59;;;;;;;;;;;;;;;2.47;81.26;101724.16;4555057;26;19932;-68
2024/04/23 02:03:01;;;;;;;;;;;;;;;2.45;81.44;101718.91;4555739;26;20067;-68
2024/04/23 02:05:04;;;;;;;;;;;;;;;2.43;81.26;101722.63;4554768;26;19927;-68
2024/04/23 02:07:06;;;;;;;;;;;;;;;2.42;81.51;101720.94;4543502;26;19963;-68
2024/04/23 02:09:10;;;;;;;;;;;;;;;2.39;81.75;101721.97;4554308;26;19928;-68
2024/04/23 02:11:11;;;;;;;;;;;;;;;2.36;81.80;101722.19;4542288;26;19933;-68
2024/04/23 02:13:15;;;;;;;;;;;;;;;2.34;81.85;101716.94;4555052;26;19927;-68
2024/04/23 02:15:18;;;;;;;;;;;;;;;2.32;82.27;101713.53;4543164;26;20000;-68
2024/04/23 02:17:22;;;;;;;;;;;;;;;2.31;81.68;101705.63;4554503;26;20365;-68
2024/04/23 02:19:23;;;;;;;;;;;;;;;2.29;82.17;101708.41;4554670;25;19955;-69
2024/04/23 02:21:26;;;;;;;;;;;;;;;2.28;82.58;101711.16;4555183;25;20003;-68
2024/04/23 02:23:27;;;;;;;;;;;;;;;2.26;82.52;101710.41;4555725;25;19927;-68
2024/04/23 02:25:31;;;;;;;;;;;;;;;2.24;82.48;101710.50;4552668;25;20390;-68
2024/04/23 02:27:32;;;;;;;;;;;;;;;2.23;82.36;101703.47;4553777;25;19934;-68
2024/04/23 02:29:35;;;;;;;;;;;;;;;2.22;81.93;101703.56;4554269;25;20365;-68
2024/04/23 02:31:39;;;;;;;;;;;;;;;2.20;82.82;101702.81;4582404;25;19931;-68
2024/04/23 02:33:43;;;;;;;;;;;;;;;2.20;82.83;101702.81;4554857;26;19938;-69
2024/04/23 02:35:44;;;;;;;;;;;;;;;2.17;83.10;101709.19;4541986;26;20262;-68
2024/04/23 02:37:47;;;;;;;;;;;;;;;2.16;82.88;101702.13;4554374;26;19935;-68
2024/04/23 02:39:48;;;;;;;;;;;;;;;2.16;82.82;101688.81;4554296;25;20241;-68
2024/04/23 02:41:52;;;;;;;;;;;;;;;2.16;82.81;101697.69;4555920;26;19960;-68
2024/04/23 02:43:53;;;;;;;;;;;;;;;2.16;82.72;101697.69;4555592;26;19934;-68
2024/04/23 02:45:57;;;;;;;;;;;;;;;2.17;82.41;101696.69;4554809;26;20357;-69
2024/04/23 02:48:00;;;;;;;;;;;;;;;2.17;82.46;101695.84;4552647;25;20374;-68
2024/04/23 02:50:01;;;;;;;;;;;;;;;2.18;82.35;101700.25;4555088;25;20574;-68
2024/04/23 02:52:05;;;;;;;;;;;;;;;2.15;81.69;101690.63;4554048;26;19996;-68
2024/04/23 02:54:06;;;;;;;;;;;;;;;2.16;81.78;101699.47;4555974;25;20257;-68
2024/04/23 02:56:09;;;;;;;;;;;;;;;2.15;81.80;101698.63;4553783;25;20003;-68
2024/04/23 02:58:10;;;;;;;;;;;;;;;2.13;81.62;101697.00;4551242;25;20385;-68
2024/04/23 03:00:14;;;;;;;;;;;;;;;2.09;81.43;101696.34;4555485;25;19927;-68
2024/04/23 03:02:15;;;;;;;;;;;;;;;2.07;81.44;101687.59;4550122;26;20437;-68
2024/04/23 03:04:22;;;;;;;;;;;;;;;2.05;81.53;101692.16;4554930;26;19939;-68
2024/04/23 03:06:23;;;;;;;;;;;;;;;2.02;81.15;101697.69;4556099;25;20281;-68
2024/04/23 03:08:26;;;;;;;;;;;;;;;2.01;81.09;101696.00;4553915;26;19928;-68
2024/04/23 03:10:27;;;;;;;;;;;;;;;1.99;81.67;101697.88;4554995;26;19941;-68
2024/04/23 03:12:31;;;;;;;;;;;;;;;1.96;81.33;101690.13;4555020;26;19999;-68
2024/04/23 03:14:32;;;;;;;;;;;;;;;1.94;81.43;101695.53;4551409;26;19934;-68
2024/04/23 03:16:36;;;;;;;;;;;;;;;1.91;81.99;101693.06;4554350;25;19928;-68
2024/04/23 03:18:37;;;;;;;;;;;;;;;1.91;82.03;101689.53;4552997;25;19935;-68
2024/04/23 03:20:43;;;;;;;;;;;;;;;1.88;81.59;101687.94;4551170;26;19938;-68
2024/04/23 03:22:44;;;;;;;;;;;;;;;1.85;82.07;101693.44;4553768;26;20424;-67
2024/04/23 03:24:47;;;;;;;;;;;;;;;1.84;81.86;101691.72;4554077;26;19928;-68
2024/04/23 03:26:49;;;;;;;;;;;;;;;1.82;81.97;101693.66;4554056;25;19928;-68
2024/04/23 03:28:52;;;;;;;;;;;;;;;1.80;81.59;101690.19;4554689;25;19928;-68
2024/04/23 03:30:53;;;;;;;;;;;;;;;1.77;81.81;101688.59;4545992;26;19928;-68
2024/04/23 03:32:55;;;;;;;;;;;;;;;1.74;82.13;101683.47;4553853;26;19935;-68
2024/04/23 03:34:58;;;;;;;;;;;;;;;1.73;81.78;101691.56;4554485;26;20405;-69
2024/04/23 03:37:04;;;;;;;;;;;;;;;1.66;81.57;101676.91;4553965;26;19935;-69
2024/04/23 03:39:05;;;;;;;;;;;;;;;1.63;81.77;101677.97;4541159;25;19963;-69
2024/04/23 03:41:09;;;;;;;;;;;;;;;1.61;81.71;101669.19;4554119;25;19934;-69
2024/04/23 03:43:10;;;;;;;;;;;;;;;1.57;81.65;101663.22;4542486;26;19928;-70
2024/04/23 03:45:14;;;;;;;;;;;;;;;1.57;81.80;101673.88;4552946;26;19934;-68
2024/04/23 03:47:15;;;;;;;;;;;;;;;1.59;81.94;101668.44;4552695;26;20397;-69
2024/04/23 03:49:19;;;;;;;;;;;;;;;1.59;81.85;101668.44;4553480;25;19927;-69
2024/04/23 03:51:20;;;;;;;;;;;;;;;1.56;81.90;101664.16;4555497;25;19939;-69
2024/04/23 03:53:26;;;;;;;;;;;;;;;1.54;81.58;101659.91;4544303;26;19927;-69
2024/04/23 03:55:27;;;;;;;;;;;;;;;1.52;81.44;101659.13;4556416;26;20369;-69
2024/04/23 03:57:30;;;;;;;;;;;;;;;1.50;81.59;101658.38;4558002;25;20298;-69
2024/04/23 03:59:32;;;;;;;;;;;;;;;1.47;81.52;101656.75;4556974;25;19934;-69
2024/04/23 04:01:36;;;;;;;;;;;;;;;1.46;81.65;101659.50;4555832;26;19959;-69
2024/04/23 04:06:06;;;;;;;;;;;;;;;1.40;81.59;101660.75;4556095;26;20682;-69
2024/04/23 04:08:10;;;;;;;;;;;;;;;1.38;81.94;101658.19;4556868;26;19936;-69
2024/04/23 04:10:16;;;;;;;;;;;;;;;1.36;81.92;101661.88;4553213;25;20622;-67
2024/04/23 04:12:19;;;;;;;;;;;;;;;1.35;82.03;101663.69;4556915;26;20277;-69
2024/04/23 04:14:23;;;;;;;;;;;;;;;1.34;82.02;101659.31;4554632;26;19934;-69
2024/04/23 04:16:27;;;;;;;;;;;;;;;1.34;82.27;101655.81;4557209;25;20353;-69
2024/04/23 04:18:28;;;;;;;;;;;;;;;1.32;82.14;101657.72;4555186;25;20288;-69
2024/04/23 04:20:31;;;;;;;;;;;;;;;1.31;82.16;101648.00;4584835;25;19927;-68
2024/04/23 04:22:32;;;;;;;;;;;;;;;1.31;82.08;101653.34;4544169;25;19928;-68
2024/04/23 04:24:36;;;;;;;;;;;;;;;1.30;82.49;101649.81;4555721;26;20039;-68
2024/04/23 04:26:40;;;;;;;;;;;;;;;1.29;82.33;101642.78;4557451;25;19963;-67
2024/04/23 04:28:44;;;;;;;;;;;;;;;1.28;82.53;101643.72;4556124;25;19939;-68
2024/04/23 04:30:45;;;;;;;;;;;;;;;1.29;82.57;101644.59;4543497;26;19932;-68
2024/04/23 04:32:48;;;;;;;;;;;;;;;1.30;82.97;101647.16;4555440;25;20118;-68
2024/04/23 04:34:49;;;;;;;;;;;;;;;1.30;82.83;101639.19;4544264;26;19935;-68
2024/04/23 04:36:53;;;;;;;;;;;;;;;1.32;82.95;101647.91;4555831;26;20304;-68
2024/04/23 04:38:54;;;;;;;;;;;;;;;1.34;82.78;101651.34;4555720;25;19934;-68
2024/04/23 04:40:57;;;;;;;;;;;;;;;1.37;82.54;101650.28;4555752;25;20273;-68
2024/04/23 04:43:01;;;;;;;;;;;;;;;1.38;82.82;101651.97;4543683;26;20400;-68
2024/04/23 04:45:05;;;;;;;;;;;;;;;1.39;82.97;101662.53;4543967;26;19934;-67
2024/04/23 04:47:06;;;;;;;;;;;;;;;1.38;82.70;101660.84;4556492;26;20021;-68
2024/04/23 04:49:09;;;;;;;;;;;;;;;1.38;82.66;101660.84;4553725;25;19927;-67
2024/04/23 04:51:10;;;;;;;;;;;;;;;1.39;83.02;101659.88;4556935;26;20038;-67
2024/04/23 04:53:14;;;;;;;;;;;;;;;1.40;82.60;101672.25;4555985;26;20428;-67
2024/04/23 04:55:15;;;;;;;;;;;;;;;1.40;82.69;101661.59;4555390;26;19934;-68
2024/04/23 04:57:19;;;;;;;;;;;;;;;1.41;83.01;101668.66;4558603;25;19935;-68
2024/04/23 04:59:22;;;;;;;;;;;;;;;1.42;83.04;101666.84;4558657;25;19935;-68
2024/04/23 05:01:26;;;;;;;;;;;;;;;1.43;82.60;101672.06;4555986;25;20046;-69
2024/04/23 05:03:27;;;;;;;;;;;;;;;1.44;82.68;101673.78;4558555;26;19928;-67
2024/04/23 05:05:31;;;;;;;;;;;;;;;1.44;82.82;101673.78;4556981;26;19928;-68
2024/04/23 05:07:32;;;;;;;;;;;;;;;1.46;82.81;101671.03;4557906;26;19953;-68
2024/04/23 05:09:35;;;;;;;;;;;;;;;1.47;82.86;101675.38;4556312;25;19940;-68
2024/04/23 05:11:36;;;;;;;;;;;;;;;1.49;82.72;101676.16;4557403;26;20035;-69
2024/04/23 05:13:40;;;;;;;;;;;;;;;1.50;83.21;101677.00;4556555;25;20265;-68
2024/04/23 05:15:44;;;;;;;;;;;;;;;1.51;83.33;101676.91;4555395;26;19943;-67
2024/04/23 05:17:47;;;;;;;;;;;;;;;1.53;83.48;101677.66;4555413;26;19991;-68
2024/04/23 05:19:48;;;;;;;;;;;;;;;1.56;83.48;101681.94;4557550;26;19928;-68
2024/04/23 05:21:52;;;;;;;;;;;;;;;1.57;83.54;101679.19;4554394;26;20337;-68
2024/04/23 05:23:53;;;;;;;;;;;;;;;1.58;83.42;101680.03;4555471;26;20361;-68
2024/04/23 05:25:56;;;;;;;;;;;;;;;1.60;83.48;101684.34;4554823;25;19935;-68
2024/04/23 05:27:57;;;;;;;;;;;;;;;1.64;83.37;101678.81;4556321;25;20364;-67
2024/04/23 05:30:01;;;;;;;;;;;;;;;1.66;83.24;101679.56;4556007;25;19927;-68
2024/04/23 05:34:24;;;;;;;;;;;;;;;1.73;83.50;101688.91;4555443;26;19996;-68
2024/04/23 05:36:28;;;;;;;;;;;;;;;1.75;83.24;101679.00;4555874;26;19952;-67
2024/04/23 05:38:29;;;;;;;;;;;;;;;1.78;83.49;101690.28;4554290;25;19935;-67
2024/04/23 05:40:33;;;;;;;;;;;;;;;1.81;83.30;101689.25;4555376;25;20325;-68
2024/04/23 05:42:34;;;;;;;;;;;;;;;1.85;83.36;101689.91;4557055;26;19928;-68
2024/04/23 05:44:37;;;;;;;;;;;;;;;1.88;83.58;101681.72;4555015;26;20052;-68
2024/04/23 05:46:41;;;;;;;;;;;;;;;1.90;83.09;101680.69;4584343;25;20303;-68
2024/04/23 05:49:06;;;;;;;;;;;;;;;1.94;83.21;101682.22;4555531;25;20364;-68
2024/04/23 05:51:44;;;;;;;;;;;;;;;1.97;83.31;101683.81;4555868;26;19996;-67
2024/04/23 05:54:24;;;;;;;;;;;;;;;2.02;83.31;101692.34;4556183;26;20039;-68
2024/04/23 05:56:51;;;;;;;;;;;;;;;2.06;83.04;101691.22;4555581;25;20585;-67
2024/04/23 05:58:52;;;;;;;;;;;;;;;2.10;83.28;101690.06;4555503;25;19927;-67
2024/04/23 06:00:56;;;;;;;;;;;;;;;2.13;83.61;101692.53;4557418;25;20369;-68
2024/04/23 06:02:58;;;;;;;;;;;;;;;2.16;83.51;101689.69;4553849;26;19934;-68
2024/04/23 06:05:01;;;;;;;;;;;;;;;2.20;83.43;101693.00;4555457;26;19940;-68
2024/04/23 06:07:02;;;;;;;;;;;;;;;2.23;83.38;101686.63;4555383;26;19978;-67
2024/04/23 06:09:06;;;;;;;;;;;;;;;2.27;83.45;101690.78;4556994;25;19928;-67
2024/04/23 14:37:30;;;;;;;;;;;;;;;8.06;50.23;101155.59;4559096;21;21145;-68
2024/04/23 14:39:31;;;;;;;;;;;;;;;8.07;50.41;101151.06;4548957;26;19927;-69
2024/04/23 14:41:35;;;;;;;;;;;;;;;8.07;50.65;101151.06;4553574;25;19931;-67
2024/04/23 14:43:36;;;;;;;;;;;;;;;8.08;50.48;101147.38;4549294;26;19936;-69
2024/04/23 14:45:39;;;;;;;;;;;;;;;8.08;50.19;101150.91;4549749;26;19995;-68
2024/04/23 14:47:40;;;;;;;;;;;;;;;8.08;49.64;101160.84;4552804;26;19938;-68
2024/04/23 14:49:44;;;;;;;;;;;;;;;8.07;49.67;101143.00;4549798;26;19929;-69
2024/04/23 14:51:45;;;;;;;;;;;;;;;8.07;49.36;101145.69;4551687;26;20558;-69
2024/04/23 14:53:53;;;;;;;;;;;;;;;8.06;48.64;101131.41;4551586;26;19995;-68
2024/04/23 14:55:57;;;;;;;;;;;;;;;8.06;49.15;101138.63;4552204;26;20389;-68
2024/04/23 14:58:01;;;;;;;;;;;;;;;8.07;48.58;101134.91;4552459;26;19934;-69
2024/04/23 15:00:02;;;;;;;;;;;;;;;8.06;48.35;101123.31;4547359;26;19928;-70
2024/04/23 15:02:06;;;;;;;;;;;;;;;8.06;48.00;101131.41;4547010;26;19935;-68
2024/04/23 15:04:06;;;;;;;;;;;;;;;8.05;48.26;101124.31;4552547;26;20014;-68
2024/04/23 15:06:11;;;;;;;;;;;;;;;8.05;48.57;101132.38;4549068;26;19935;-70
2024/04/23 15:08:12;;;;;;;;;;;;;;;8.05;48.46;101123.47;4552113;25;19927;-69
2024/04/23 15:10:18;;;;;;;;;;;;;;;8.05;48.41;101127.00;4551653;26;19967;-69
2024/04/23 15:12:19;;;;;;;;;;;;;;;8.05;47.93;101131.53;4551789;26;19928;-68
2024/04/23 15:14:23;;;;;;;;;;;;;;;8.05;48.23;101121.63;4550519;26;19927;-70
2024/04/23 15:16:24;;;;;;;;;;;;;;;8.05;47.78;101121.63;4551882;26;19939;-68
2024/04/23 15:18:28;;;;;;;;;;;;;;;8.05;48.04;101118.94;4550845;26;19928;-68
2024/04/23 15:20:29;;;;;;;;;;;;;;;8.05;47.77;101112.72;4551981;26;19928;-69
2024/04/23 15:22:32;;;;;;;;;;;;;;;8.05;48.32;101115.41;4551783;26;19938;-68
2024/04/23 15:24:38;;;;;;;;;;;;;;;8.06;47.98;101119.78;4552448;26;19934;-69
2024/04/23 15:26:44;;;;;;;;;;;;;;;8.05;47.78;101108.16;4549648;26;19935;-69
2024/04/23 15:28:48;;;;;;;;;;;;;;;8.05;48.57;101104.66;4552646;26;19939;-69
2024/04/23 15:30:51;;;;;;;;;;;;;;;8.06;48.08;101111.72;4552344;26;20489;-69
2024/04/23 15:32:52;;;;;;;;;;;;;;;8.05;48.43;101102.78;4550314;26;20280;-68
2024/04/23 15:34:56;;;;;;;;;;;;;;;8.05;48.83;101102.78;4551155;26;19934;-68
2024/04/23 15:36:57;;;;;;;;;;;;;;;8.06;48.29;101109.88;4551229;26;19996;-68
2024/04/23 15:39:03;;;;;;;;;;;;;;;8.05;48.02;101108.16;4546810;25;19935;-68
2024/04/23 15:41:04;;;;;;;;;;;;;;;8.06;48.01;101098.28;4547406;26;19935;-68
2024/04/23 15:43:10;;;;;;;;;;;;;;;8.06;48.34;101104.50;4548052;26;19967;-69
2024/04/23 15:45:12;;;;;;;;;;;;;;;8.06;47.81;101104.50;4550107;26;19927;-68
2024/04/23 15:47:16;;;;;;;;;;;;;;;8.06;48.19;101092.91;4552436;25;19955;-68
2024/04/23 15:49:17;;;;;;;;;;;;;;;8.06;47.86;101103.66;4554324;26;20399;-68
2024/04/23 15:51:22;;;;;;;;;;;;;;;8.05;48.09;101094.72;4553101;26;19940;-67
2024/04/23 15:53:23;;;;;;;;;;;;;;;8.05;48.45;101092.03;4553627;26;20347;-68
2024/04/23 15:55:27;;;;;;;;;;;;;;;8.06;48.38;101084.81;4552062;26;19927;-67
2024/04/23 15:57:28;;;;;;;;;;;;;;;8.06;48.52;101087.53;4553114;26;20365;-68
2024/04/23 15:59:34;;;;;;;;;;;;;;;8.06;48.35;101082.97;4554357;26;20145;-67
2024/04/23 16:01:36;;;;;;;;;;;;;;;8.06;48.35;101076.75;4552140;26;19927;-67
2024/04/23 16:03:41;;;;;;;;;;;;;;;8.06;48.17;101091.03;4554077;26;19956;-67
2024/04/23 16:05:42;;;;;;;;;;;;;;;8.05;48.56;101075.06;4546814;26;19928;-67
2024/04/23 16:07:45;;;;;;;;;;;;;;;8.05;48.41;101077.75;4552992;26;20292;-68
2024/04/23 16:09:46;;;;;;;;;;;;;;;8.04;48.70;101066.16;4524179;26;20334;-67
2024/04/23 16:11:50;;;;;;;;;;;;;;;8.05;48.76;101075.88;4551530;26;19927;-67
2024/04/23 16:13:51;;;;;;;;;;;;;;;8.06;48.76;101066.00;4554563;26;19934;-67
2024/04/23 16:15:57;;;;;;;;;;;;;;;8.05;48.86;101066.97;4553635;25;19928;-67
2024/04/23 16:17:58;;;;;;;;;;;;;;;8.06;49.25;101063.31;4552974;26;20481;-67
2024/04/23 16:20:04;;;;;;;;;;;;;;;8.06;48.65;101055.25;4553214;26;19928;-67
2024/04/23 16:22:05;;;;;;;;;;;;;;;8.07;48.83;101056.91;4524490;26;19932;-68
2024/04/23 16:24:09;;;;;;;;;;;;;;;8.06;48.57;101053.38;4551882;26;19939;-67
2024/04/23 16:26:10;;;;;;;;;;;;;;;8.07;48.89;101057.78;4554418;26;19935;-68
2024/04/23 16:28:13;;;;;;;;;;;;;;;8.06;49.11;101048.00;4552799;26;20039;-67
2024/04/23 16:30:14;;;;;;;;;;;;;;;8.07;49.35;101051.53;4553026;26;20274;-68
2024/04/23 16:32:21;;;;;;;;;;;;;;;8.06;49.29;101039.94;4552304;26;19927;-68
2024/04/23 16:34:22;;;;;;;;;;;;;;;8.07;49.56;101046.16;4553281;26;19927;-67
2024/04/23 16:36:27;;;;;;;;;;;;;;;8.07;49.42;101046.16;4551730;26;19939;-67
2024/04/23 16:38:28;;;;;;;;;;;;;;;8.07;49.46;101040.75;4552790;26;20365;-67
2024/04/23 16:40:32;;;;;;;;;;;;;;;8.07;49.66;101046.16;4553753;26;20351;-68
2024/04/23 16:42:33;;;;;;;;;;;;;;;8.08;49.35;101037.09;4552853;26;19934;-67
2024/04/23 16:44:37;;;;;;;;;;;;;;;8.08;49.56;101043.31;4553851;26;19947;-68
2024/04/23 16:46:37;;;;;;;;;;;;;;;8.08;49.63;101034.41;4552489;26;19935;-68
2024/04/23 16:48:44;;;;;;;;;;;;;;;8.08;49.95;101039.78;4552674;26;19939;-67
2024/04/23 16:50:47;;;;;;;;;;;;;;;8.07;50.17;101030.88;4553691;26;19939;-67
2024/04/23 16:52:51;;;;;;;;;;;;;;;8.09;50.15;101036.09;4552447;26;19932;-68
2024/04/23 16:54:52;;;;;;;;;;;;;;;8.09;50.22;101031.56;4553159;26;19939;-68
2024/04/23 16:56:55;;;;;;;;;;;;;;;8.08;50.02;101029.84;4552877;26;19935;-65
2024/04/23 16:58:56;;;;;;;;;;;;;;;8.09;50.49;101025.34;4552571;26;19939;-67
2024/04/23 17:01:00;;;;;;;;;;;;;;;8.09;50.18;101031.56;4553138;26;20448;-68
2024/04/23 17:03:05;;;;;;;;;;;;;;;8.09;50.24;101022.66;4552975;26;20432;-67
2024/04/23 17:05:12;;;;;;;;;;;;;;;8.10;50.23;101021.63;4551167;26;19934;-67
2024/04/23 17:07:13;;;;;;;;;;;;;;;8.09;50.12;101020.78;4551673;26;19967;-67
2024/04/23 17:09:17;;;;;;;;;;;;;;;8.09;50.29;101018.09;4553802;26;19930;-69
2024/04/23 17:11:18;;;;;;;;;;;;;;;8.10;50.09;101019.81;4551709;26;20478;-66
2024/04/23 17:13:21;;;;;;;;;;;;;;;8.10;50.52;101022.50;4549585;26;19932;-68
2024/04/23 17:15:26;;;;;;;;;;;;;;;8.09;50.53;101014.56;4551416;26;19928;-67
2024/04/23 17:17:30;;;;;;;;;;;;;;;8.09;50.53;101023.47;4551650;26;19928;-68
2024/04/23 17:19:31;;;;;;;;;;;;;;;8.09;50.24;101025.34;4552069;26;19928;-68
2024/04/23 17:21:38;;;;;;;;;;;;;;;8.09;50.50;101015.41;4549467;26;20312;-68
2024/04/23 17:23:39;;;;;;;;;;;;;;;8.08;50.87;101010.19;4552443;26;20017;-68
2024/04/23 17:25:42;;;;;;;;;;;;;;;8.09;50.43;101012.72;4552817;26;19927;-67
2024/04/23 17:27:44;;;;;;;;;;;;;;;8.09;50.93;101014.56;4550136;26;20278;-67
2024/04/23 17:29:47;;;;;;;;;;;;;;;8.08;50.74;101007.50;4523187;26;20376;-68
2024/04/23 17:31:48;;;;;;;;;;;;;;;8.07;50.85;101003.97;4551693;26;19928;-68
2024/04/23 17:33:52;;;;;;;;;;;;;;;8.08;50.65;101008.34;4551958;26;19952;-68
2024/04/23 17:35:56;;;;;;;;;;;;;;;8.07;50.93;101003.97;4553826;26;19928;-68
2024/04/23 17:38:02;;;;;;;;;;;;;;;8.07;50.89;101006.66;4552643;26;20297;-67
2024/04/23 17:40:03;;;;;;;;;;;;;;;8.08;50.78;101004.81;4552965;25;19935;-68
2024/04/23 17:42:07;;;;;;;;;;;;;;;8.08;50.82;101010.19;4550610;26;19935;-67
2024/04/23 17:44:08;;;;;;;;;;;;;;;8.08;50.67;101005.63;4552049;26;19940;-67
2024/04/23 17:46:15;;;;;;;;;;;;;;;8.06;50.73;100996.06;4550052;26;19936;-68
2024/04/23 17:48:16;;;;;;;;;;;;;;;8.05;50.83;100989.81;4539990;26;20353;-68
2024/04/23 17:50:20;;;;;;;;;;;;;;;8.05;51.02;100984.44;4549769;26;21179;-67
2024/04/23 17:52:21;;;;;;;;;;;;;;;8.05;51.41;100986.28;4549864;26;20023;-68
2024/04/23 17:54:27;;;;;;;;;;;;;;;8.04;51.04;100993.53;4550212;25;19976;-67
2024/04/23 17:56:31;;;;;;;;;;;;;;;8.04;51.13;100980.06;4548414;26;20380;-67
2024/04/23 17:58:36;;;;;;;;;;;;;;;8.03;51.48;100980.22;4551092;26;20294;-67
2024/04/23 18:00:37;;;;;;;;;;;;;;;8.04;51.14;100976.50;4551363;26;19928;-67
2024/04/23 18:02:40;;;;;;;;;;;;;;;8.02;51.68;100984.72;4549706;26;19943;-66
2024/04/23 18:04:43;;;;;;;;;;;;;;;8.03;51.62;100977.53;4552783;26;19928;-66
2024/04/23 18:06:46;;;;;;;;;;;;;;;8.02;51.50;100978.53;4551580;26;19943;-66
2024/04/23 18:08:51;;;;;;;;;;;;;;;8.02;51.75;100983.91;4548805;26;19928;-66
2024/04/23 18:10:58;;;;;;;;;;;;;;;8.02;51.65;100978.53;4551279;25;19939;-68
2024/04/23 18:12:59;;;;;;;;;;;;;;;8.01;51.72;100983.06;4550613;26;20007;-67
2024/04/23 18:15:03;;;;;;;;;;;;;;;8.01;51.75;100980.38;4551826;26;19935;-66
2024/04/23 18:17:04;;;;;;;;;;;;;;;8.01;51.82;100977.69;4550862;26;19928;-68
2024/04/23 18:19:08;;;;;;;;;;;;;;;8.01;51.77;100980.38;4552125;26;20369;-67
2024/04/23 18:21:12;;;;;;;;;;;;;;;8.00;51.89;100978.69;4550080;26;19935;-68
2024/04/23 18:23:15;;;;;;;;;;;;;;;7.99;52.07;100979.66;4548530;25;19927;-67
2024/04/23 18:25:17;;;;;;;;;;;;;;;7.99;52.20;100986.91;4551748;26;19935;-67
2024/04/23 18:27:25;;;;;;;;;;;;;;;7.99;52.15;100978.81;4579803;25;19928;-66
2024/04/23 18:29:26;;;;;;;;;;;;;;;7.99;51.99;100973.44;4550970;26;20616;-67
2024/04/23 18:31:30;;;;;;;;;;;;;;;7.97;52.21;100978.97;4547622;26;20367;-67
2024/04/23 18:33:31;;;;;;;;;;;;;;;7.97;52.11;100976.28;4548685;26;20017;-67
2024/04/23 18:35:35;;;;;;;;;;;;;;;7.96;52.25;100963.84;4550109;25;20631;-67
2024/04/23 18:37:36;;;;;;;;;;;;;;;7.96;52.34;100971.06;4549653;26;19940;-67
2024/04/23 18:39:40;;;;;;;;;;;;;;;7.95;52.38;100967.53;4550650;26;19931;-67
2024/04/23 18:41:42;;;;;;;;;;;;;;;7.94;52.28;100960.47;4551036;26;20395;-66
2024/04/23 18:43:50;;;;;;;;;;;;;;;7.93;52.58;100967.69;4549860;26;19942;-67
2024/04/23 18:45:51;;;;;;;;;;;;;;;7.87;51.89;100960.25;4550385;26;19944;-68
2024/04/23 18:47:56;;;;;;;;;;;;;;;7.91;52.40;100966.97;4550735;26;19927;-66
2024/04/23 18:49:57;;;;;;;;;;;;;;;7.92;52.47;100966.00;4550468;26;19928;-67
2024/04/23 18:52:01;;;;;;;;;;;;;;;7.91;52.54;100964.28;4549751;26;20008;-67
2024/04/23 18:54:02;;;;;;;;;;;;;;;7.90;52.11;100956.41;4551751;26;19927;-67
2024/04/23 18:56:09;;;;;;;;;;;;;;;7.89;52.00;100966.31;4549735;26;19935;-67
2024/04/23 18:58:12;;;;;;;;;;;;;;;7.89;52.23;100960.94;4549787;26;19940;-67
2024/04/23 19:00:18;;;;;;;;;;;;;;;7.88;52.33;100961.94;4552203;26;20447;-68
2024/04/23 19:02:19;;;;;;;;;;;;;;;7.88;52.40;100956.56;4548966;26;19928;-66
2024/04/23 19:04:23;;;;;;;;;;;;;;;7.88;52.34;100961.06;4550688;25;19935;-67
2024/04/23 19:06:24;;;;;;;;;;;;;;;7.87;52.17;100954.88;4551352;26;19928;-68
2024/04/23 19:08:27;;;;;;;;;;;;;;;7.87;52.40;100945.97;4552931;26;19927;-67
2024/04/23 19:10:28;;;;;;;;;;;;;;;7.85;52.37;100943.44;4552442;26;20298;-67
2024/04/23 19:12:32;;;;;;;;;;;;;;;7.84;52.48;100944.41;4552148;26;19935;-67